Time;durP1;ratioP1;P1;durP2;ratioP2;P2;SDS_P1;SDS_P2;PMS_P1;PMS_P2;Temp;Humidity;BMP_temperature;BMP_pressure;BME280_temperature;BME280_humidity;BME280_pressure;Samples;Min_cycle;Max_cycle;Signal;HPM_P1;HPM_P2
2022/06/15 00:01:02;;;;;;;12.70;10.07;;;;;;;;;;5062729;28;20081;-75
2022/06/15 00:03:30;;;;;;;10.68;9.25;;;;;;;;;;5068387;28;20138;-75
2022/06/15 00:06:05;;;;;;;12.70;9.88;;;;;;;;;;5073424;28;20053;-75
2022/06/15 00:08:31;;;;;;;13.25;9.48;;;;;;;;;;5066407;28;20062;-75
2022/06/15 00:10:57;;;;;;;11.50;9.80;;;;;;;;;;5064177;28;20578;-75
2022/06/15 00:13:23;;;;;;;11.38;9.88;;;;;;;;;;5065027;28;20048;-75
2022/06/15 00:15:49;;;;;;;13.25;10.38;;;;;;;;;;5059392;28;20055;-75
2022/06/15 00:18:15;;;;;;;11.27;10.10;;;;;;;;;;5063902;28;20047;-75
2022/06/15 00:20:41;;;;;;;10.57;9.48;;;;;;;;;;5062356;28;20041;-75
2022/06/15 00:23:07;;;;;;;13.85;9.82;;;;;;;;;;5063386;28;20033;-75
2022/06/15 00:25:33;;;;;;;11.00;9.55;;;;;;;;;;5070917;28;20048;-75
2022/06/15 00:27:59;;;;;;;11.68;9.45;;;;;;;;;;5070037;28;20100;-75
2022/06/15 00:30:25;;;;;;;11.55;8.93;;;;;;;;;;5073354;28;20048;-75
2022/06/15 00:32:51;;;;;;;11.23;9.52;;;;;;;;;;5062810;28;20559;-75
2022/06/15 00:35:18;;;;;;;10.38;9.18;;;;;;;;;;5058157;28;20064;-75
2022/06/15 00:37:44;;;;;;;12.68;9.23;;;;;;;;;;5068812;28;20053;-75
2022/06/15 00:40:10;;;;;;;11.07;9.40;;;;;;;;;;5069471;28;20040;-75
2022/06/15 00:42:36;;;;;;;11.00;9.38;;;;;;;;;;5072028;28;20048;-75
2022/06/15 00:45:03;;;;;;;12.70;10.38;;;;;;;;;;5061906;28;20405;-75
2022/06/15 00:47:32;;;;;;;11.00;8.85;;;;;;;;;;5058527;28;20043;-75
2022/06/15 00:50:03;;;;;;;12.63;9.85;;;;;;;;;;5060132;28;20086;-75
2022/06/15 00:52:48;;;;;;;12.38;9.93;;;;;;;;;;5064469;28;20555;-75
2022/06/15 00:55:22;;;;;;;10.73;9.50;;;;;;;;;;5067704;28;20082;-75
2022/06/15 00:57:48;;;;;;;11.90;8.95;;;;;;;;;;5076293;28;20123;-75
2022/06/15 01:00:14;;;;;;;10.65;9.32;;;;;;;;;;5056560;28;20164;-75
2022/06/15 01:02:42;;;;;;;11.18;9.23;;;15.90;99.90;;;;;;5063189;28;20154;-75
2022/06/15 01:05:17;;;;;;;11.20;9.38;;;14.80;99.90;;;;;;5070454;28;20064;-75
2022/06/15 01:07:58;;;;;;;12.13;10.15;;;14.80;99.90;;;;;;5071506;28;20424;-75
2022/06/15 01:10:43;;;;;;;11.82;9.63;;;14.70;99.90;;;;;;5084786;28;20532;-75
2022/06/15 01:13:43;;;;;;;11.00;9.43;;;14.70;99.90;;;;;;5073373;28;20048;-75
2022/06/15 01:16:28;;;;;;;10.32;9.05;;;14.90;99.90;;;;;;5057093;28;20045;-75
2022/06/15 01:19:25;;;;;;;11.55;9.70;;;14.60;99.90;;;;;;5053229;28;20052;-75
2022/06/15 01:21:56;;;;;;;10.77;9.77;;;14.40;99.90;;;;;;5063602;28;20550;-75
2022/06/15 01:24:52;;;;;;;12.48;9.90;;;14.50;99.90;;;;;;5074160;28;20395;-75
2022/06/15 01:27:51;;;;;;;9.75;8.75;;;14.40;99.90;;;;;;5057062;28;20068;-75
2022/06/15 01:30:38;;;;;;;12.70;9.88;;;14.50;99.90;;;;;;5056035;28;20056;-75
2022/06/15 01:33:24;;;;;;;11.98;9.70;;;14.40;99.90;;;;;;5069025;28;20491;-75
2022/06/15 01:36:17;;;;;;;11.27;9.30;;;14.40;99.90;;;;;;5086514;28;20047;-75
2022/06/15 01:38:52;;;;;;;9.95;8.88;;;14.40;99.90;;;;;;5062089;28;20507;-75
2022/06/15 01:41:33;;;;;;;10.70;9.10;;;14.40;99.90;;;;;;5057205;28;20071;-75
2022/06/15 01:44:18;;;;;;;11.60;9.43;;;14.50;99.90;;;;;;5058982;28;20045;-75
2022/06/15 01:46:46;;;;;;;10.73;8.85;;;14.60;99.90;;;;;;5066146;28;20039;-75
2022/06/15 01:49:25;;;;;;;10.02;9.02;;;14.50;99.90;;;;;;5063726;28;20047;-75
2022/06/15 01:51:52;;;;;;;11.43;9.63;;;14.20;99.90;;;;;;5063604;28;20131;-75
2022/06/15 01:54:35;;;;;;;12.27;10.10;;;14.30;99.90;;;;;;5061657;28;20041;-75
2022/06/15 01:57:07;;;;;;;14.23;10.27;;;14.10;99.90;;;;;;5057911;28;20076;-75
2022/06/15 02:00:04;;;;;;;12.80;10.32;;;14.10;99.90;;;;;;5078329;28;20143;-75
2022/06/15 02:03:04;;;;;;;12.60;10.15;;;14.10;99.90;;;;;;5059653;28;20080;-75
2022/06/15 02:05:58;;;;;;;11.02;10.02;;;14.10;99.90;;;;;;5054526;28;20048;-75
2022/06/15 02:08:45;;;;;;;11.43;10.13;;;14.00;99.90;;;;;;5072104;28;20052;-75
2022/06/15 02:11:41;;;;;;;12.30;11.00;;;14.10;99.90;;;;;;5062617;28;20040;-75
2022/06/15 02:14:07;;;;;;;12.55;10.88;;;14.00;99.90;;;;;;5053936;28;20060;-74
2022/06/15 02:17:08;;;;;;;13.82;11.52;;;14.00;99.90;;;;;;5074830;28;20151;-75
2022/06/15 02:19:39;;;;;;;11.02;9.93;;;13.90;99.90;;;;;;5042352;28;20055;-75
2022/06/15 02:22:15;;;;;;;11.52;10.20;;;13.90;99.90;;;;;;5059768;28;20050;-75
2022/06/15 02:24:43;;;;;;;11.73;10.52;;;13.90;99.90;;;;;;5069922;28;20052;-75
2022/06/15 02:27:11;;;;;;;13.98;10.55;;;13.80;99.90;;;;;;5064252;28;20060;-75
2022/06/15 02:29:40;;;;;;;13.45;11.82;;;13.80;99.90;;;;;;5070197;28;20044;-75
2022/06/15 02:32:11;;;;;;;12.75;10.98;;;13.80;99.90;;;;;;5063177;28;20093;-75
2022/06/15 02:34:37;;;;;;;12.75;11.10;;;13.80;99.90;;;;;;5059202;28;20068;-75
2022/06/15 02:37:05;;;;;;;12.57;11.27;;;13.80;99.90;;;;;;5069288;28;20119;-75
2022/06/15 02:39:34;;;;;;;12.00;10.77;;;13.80;99.90;;;;;;5058094;28;20123;-75
2022/06/15 02:42:03;;;;;;;13.85;11.95;;;13.80;99.90;;;;;;5062554;28;20050;-75
2022/06/15 02:44:33;;;;;;;13.40;12.00;;;14.00;99.90;;;;;;5068398;28;20137;-75
2022/06/15 02:46:59;;;;;;;13.43;12.02;;;13.70;99.90;;;;;;5063777;28;20060;-75
2022/06/15 02:49:25;;;;;;;13.38;11.95;;;13.80;99.90;;;;;;5069107;28;20115;-75
2022/06/15 02:51:58;;;;;;;13.25;11.30;;;13.70;99.90;;;;;;5061395;28;20067;-75
2022/06/15 02:54:33;;;;;;;14.10;11.02;;;13.70;99.90;;;;;;5062735;28;20392;-75
2022/06/15 02:56:59;;;;;;;12.18;10.70;;;13.70;99.90;;;;;;5063584;28;20128;-75
2022/06/15 02:59:24;;;;;;;13.50;10.80;;;13.60;99.90;;;;;;5058906;28;20131;-75
2022/06/15 03:01:50;;;;;;;11.73;10.52;;;13.60;99.90;;;;;;5065016;28;20041;-75
2022/06/15 03:04:16;;;;;;;11.15;9.98;;;13.60;99.90;;;;;;5062001;28;20403;-75
2022/06/15 03:06:41;;;;;;;11.82;10.13;;;13.70;99.90;;;;;;5066296;28;20454;-75
2022/06/15 03:09:07;;;;;;;11.07;9.88;;;13.70;99.90;;;;;;5069151;28;20555;-75
2022/06/15 03:11:33;;;;;;;11.40;10.07;;;13.70;99.90;;;;;;5060605;28;20495;-75
2022/06/15 03:13:59;;;;;;;11.73;10.52;;;13.50;99.90;;;;;;5076288;28;20032;-75
2022/06/15 03:16:24;;;;;;;12.15;10.85;;;13.80;99.90;;;;;;5073158;28;20492;-75
2022/06/15 03:18:50;;;;;;;11.43;10.32;;;13.60;99.90;;;;;;5058807;28;20040;-75
2022/06/15 03:21:16;;;;;;;11.45;10.18;;;13.70;99.90;;;;;;5069371;28;20153;-75
2022/06/15 03:23:42;;;;;;;13.40;10.50;;;13.70;99.90;;;;;;5062373;28;20048;-75
2022/06/15 03:26:09;;;;;;;12.93;10.48;;;13.70;99.90;;;;;;5058044;28;20047;-75
2022/06/15 03:28:35;;;;;;;11.95;10.48;;;14.10;99.90;;;;;;5071636;28;20055;-75
2022/06/15 03:31:01;;;;;;;12.65;10.38;;;14.20;99.90;;;;;;5072298;28;20041;-75
2022/06/15 03:33:27;;;;;;;13.30;9.80;;;13.60;99.90;;;;;;5078750;28;20051;-75
2022/06/15 03:35:53;;;;;;;13.27;10.27;;;13.70;99.90;;;;;;5072565;28;20045;-75
2022/06/15 03:38:19;;;;;;;12.52;10.25;;;13.60;99.90;;;;;;5079199;28;20077;-75
2022/06/15 03:40:47;;;;;;;12.30;10.23;;;13.50;99.90;;;;;;5059400;28;20052;-75
2022/06/15 03:43:13;;;;;;;11.23;9.93;;;13.80;99.90;;;;;;5069174;28;20061;-75
2022/06/15 03:45:42;;;;;;;11.10;9.93;;;13.70;99.90;;;;;;5084756;28;20036;-75
2022/06/15 03:48:08;;;;;;;10.65;9.55;;;13.60;99.90;;;;;;5068238;28;20449;-75
2022/06/15 03:50:34;;;;;;;10.93;9.45;;;13.70;99.90;;;;;;5067543;28;20045;-75
2022/06/15 03:53:01;;;;;;;10.63;9.52;;;13.80;99.90;;;;;;5061891;28;20063;-75
2022/06/15 03:55:28;;;;;;;11.70;9.68;;;13.70;99.90;;;;;;5088617;28;20092;-75
2022/06/15 03:57:54;;;;;;;11.07;9.55;;;13.70;99.90;;;;;;5061820;28;20045;-76
2022/06/15 04:00:22;;;;;;;12.00;9.43;;;13.70;99.90;;;;;;5062013;28;20494;-74
2022/06/15 04:02:48;;;;;;;11.60;10.35;;;13.80;99.90;;;;;;5066606;28;20087;-75
2022/06/15 04:05:32;;;;;;;10.38;8.73;;;13.70;99.90;;;;;;5076429;28;20590;-75
2022/06/15 04:10:42;;;;;;;12.38;9.80;;;14.00;99.90;;;;;;5056966;28;20045;-75
2022/06/15 04:13:08;;;;;;;10.15;9.15;;;14.30;99.90;;;;;;5070731;28;20052;-75
2022/06/15 04:15:33;;;;;;;10.90;8.82;;;13.80;99.90;;;;;;5075110;28;20056;-75
2022/06/15 04:18:02;;;;;;;11.23;9.32;;;13.90;99.90;;;;;;5063991;28;20032;-75
2022/06/15 04:20:36;;;;;;;11.90;9.30;;;13.90;99.90;;;;;;5070856;28;20040;-76
2022/06/15 04:23:13;;;;;;;13.18;9.65;;;14.00;99.90;;;;;;5074774;28;20059;-75
2022/06/15 04:25:47;;;;;;;11.55;9.63;;;14.40;99.90;;;;;;5056946;28;20079;-75
2022/06/15 04:28:15;;;;;;;12.30;9.80;;;14.30;99.90;;;;;;5078872;28;20057;-75
2022/06/15 04:30:41;;;;;;;11.20;9.25;;;14.10;99.90;;;;;;5061397;28;20500;-75
2022/06/15 04:33:12;;;;;;;10.43;8.70;;;14.40;99.90;;;;;;5066630;28;20041;-75
2022/06/15 04:35:39;;;;;;;11.63;9.20;;;14.00;99.90;;;;;;5067986;28;20041;-74
2022/06/15 04:38:09;;;;;;;11.80;9.73;;;14.00;99.90;;;;;;5074935;28;20399;-75
2022/06/15 04:40:37;;;;;;;10.07;9.07;;;14.00;99.90;;;;;;5066242;28;20047;-75
2022/06/15 04:43:07;;;;;;;11.27;9.10;;;14.00;99.90;;;;;;5069009;28;20040;-75
2022/06/15 04:45:36;;;;;;;11.20;8.52;;;14.00;99.90;;;;;;5060900;28;20132;-75
2022/06/15 04:48:02;;;;;;;11.88;9.10;;;14.10;99.90;;;;;;5070305;28;20375;-75
2022/06/15 04:50:29;;;;;;;9.23;8.18;;;14.10;99.90;;;;;;5077357;28;20475;-75
2022/06/15 04:52:55;;;;;;;11.27;8.48;;;14.10;99.90;;;;;;5065158;28;20442;-75
2022/06/15 04:55:25;;;;;;;11.30;8.70;;;14.30;99.90;;;;;;5068948;28;20044;-75
2022/06/15 04:57:54;;;;;;;10.57;7.88;;;14.20;99.90;;;;;;5056863;28;20499;-75
2022/06/15 05:00:21;;;;;;;10.65;8.02;;;;;;;;;;5063868;28;20040;-75
2022/06/15 05:02:47;;;;;;;9.88;8.15;;;;;;;;;;5077146;28;20069;-75
2022/06/15 05:05:13;;;;;;;11.50;8.20;;;;;;;;;;5085279;28;20082;-75
2022/06/15 05:07:40;;;;;;;9.95;8.05;;;;;;;;;;5054412;28;20205;-75
2022/06/15 05:10:07;;;;;;;9.88;7.63;;;;;;;;;;5076157;28;20067;-75
2022/06/15 05:12:33;;;;;;;9.68;7.97;;;;;;;;;;5066439;28;20411;-75
2022/06/15 05:15:00;;;;;;;9.70;7.30;;;;;;;;;;5077399;28;20080;-76
2022/06/15 05:17:26;;;;;;;10.02;7.55;;;;;;;;;;5068112;28;20086;-76
2022/06/15 05:19:52;;;;;;;9.68;6.97;;;;;;;;;;5073101;28;20052;-76
2022/06/15 05:22:18;;;;;;;9.63;7.75;;;;;;;;;;5070171;28;20059;-75
2022/06/15 05:24:47;;;;;;;11.13;7.95;;;;;;;;;;5063891;28;20392;-75
2022/06/15 05:27:13;;;;;;;9.73;7.57;;;;;;;;;;5070537;28;20047;-76
2022/06/15 05:29:39;;;;;;;7.90;7.10;;;;;;;;;;5086846;28;20041;-75
2022/06/15 05:32:06;;;;;;;10.88;7.20;;;;;;;;;;5065613;28;20049;-76
2022/06/15 05:34:33;;;;;;;11.35;6.75;;;;;;;;;;5068070;28;20507;-76
2022/06/15 05:36:59;;;;;;;9.20;6.78;;;;;;;;;;5068487;28;20436;-76
2022/06/15 05:39:25;;;;;;;9.43;6.57;;;;;;;;;;5070906;28;20487;-75
2022/06/15 05:41:51;;;;;;;8.45;6.80;;;;;;;;;;5067434;28;20087;-75
2022/06/15 05:46:47;;;;;;;11.15;6.18;;;;;;;;;;5067019;28;20476;-75
2022/06/15 05:49:13;;;;;;;9.38;6.70;;;;;;;;;;5063057;28;20064;-75
2022/06/15 05:51:41;;;;;;;9.43;6.28;;;;;;;;;;5065991;28;20044;-75
2022/06/15 05:54:07;;;;;;;10.40;6.55;;;;;;;;;;5064014;28;20057;-75
2022/06/15 05:56:33;;;;;;;8.45;6.47;;;;;;;;;;5068157;28;20037;-76
2022/06/15 05:59:00;;;;;;;11.05;6.55;;;;;;;;;;5065922;28;20091;-76
2022/06/15 06:01:28;;;;;;;8.02;6.38;;;;;;;;;;5060851;28;20036;-75
2022/06/15 06:03:54;;;;;;;8.90;5.97;;;;;;;;;;5058945;28;20044;-75
2022/06/15 06:06:20;;;;;;;7.25;6.32;;;;;;;;;;5067840;28;20064;-75
2022/06/15 06:08:46;;;;;;;8.85;5.88;;;;;;;;;;5065150;28;20072;-76
2022/06/15 06:11:12;;;;;;;8.23;5.80;;;;;;;;;;5067294;28;20040;-75
2022/06/15 06:13:38;;;;;;;8.65;5.60;;;;;;;;;;5057047;28;20434;-75
2022/06/15 06:16:04;;;;;;;12.02;6.05;;;;;;;;;;5052692;28;20056;-75
2022/06/15 06:18:30;;;;;;;11.30;6.00;;;;;;;;;;5066651;28;20076;-75
2022/06/15 06:20:56;;;;;;;7.63;5.68;;;;;;;;;;5070538;28;20051;-75
2022/06/15 06:23:22;;;;;;;9.00;5.18;;;;;;;;;;5063527;28;20052;-75
2022/06/15 06:25:51;;;;;;;10.13;4.70;;;;;;;;;;5062276;28;20055;-75
2022/06/15 06:28:29;;;;;;;7.32;4.55;;;;;;;;;;5054151;28;20127;-75
2022/06/15 06:30:57;;;;;;;8.40;4.75;;;;;;;;;;5071613;28;20036;-75
2022/06/15 06:33:24;;;;;;;7.63;5.13;;;;;;;;;;5050693;28;20049;-75
2022/06/15 06:35:50;;;;;;;6.32;4.53;;;;;;;;;;5065072;28;20056;-75
2022/06/15 06:38:16;;;;;;;8.15;4.40;;;;;;;;;;5068182;28;20060;-75
2022/06/15 06:40:42;;;;;;;5.93;3.80;;;;;;;;;;5064089;28;20626;-75
2022/06/15 06:43:08;;;;;;;5.07;3.90;;;;;;;;;;5064080;28;20075;-76
2022/06/15 06:45:34;;;;;;;6.32;4.18;;;;;;;;;;5055440;28;20051;-75
2022/06/15 06:48:00;;;;;;;8.18;3.92;;;;;;;;;;5054152;28;20506;-75
2022/06/15 06:50:27;;;;;;;7.97;4.00;;;;;;;;;;5060092;28;20083;-75
2022/06/15 06:52:53;;;;;;;5.35;4.00;;;;;;;;;;5061973;28;20060;-75
2022/06/15 06:55:24;;;;;;;7.65;4.28;;;;;;;;;;5056634;28;20394;-75
2022/06/15 06:57:53;;;;;;;7.28;4.72;;;;;;;;;;5069253;28;20063;-76
2022/06/15 07:00:20;;;;;;;9.95;4.18;;;;;;;;;;5064297;28;20037;-76
2022/06/15 07:02:46;;;;;;;6.40;4.25;;;;;;;;;;5064807;28;20468;-76
2022/06/15 07:05:15;;;;;;;6.35;4.07;;;;;;;;;;5064013;28;20044;-76
2022/06/15 07:07:41;;;;;;;6.78;4.30;;;;;;;;;;5062105;28;20052;-76
2022/06/15 07:10:07;;;;;;;6.93;4.20;;;;;;;;;;5075365;28;20070;-76
2022/06/15 07:12:34;;;;;;;5.70;4.43;;;;;;;;;;5072254;28;20055;-76
2022/06/15 07:15:00;;;;;;;7.38;4.80;;;;;;;;;;5055035;28;20052;-76
2022/06/15 07:17:26;;;;;;;6.32;4.35;;;;;;;;;;5060874;28;20110;-76
2022/06/15 07:19:52;;;;;;;6.50;5.20;;;;;;;;;;5073986;28;20050;-76
2022/06/15 07:22:18;;;;;;;5.97;4.18;;;;;;;;;;5068454;28;20123;-76
2022/06/15 07:24:44;;;;;;;8.77;4.85;;;;;;;;;;5073597;28;20815;-76
2022/06/15 07:27:10;;;;;;;7.60;4.20;;;;;;;;;;5060364;28;20049;-76
2022/06/15 07:29:36;;;;;;;5.50;4.00;;;;;;;;;;5072575;28;20053;-76
2022/06/15 07:32:02;;;;;;;6.43;4.07;;;;;;;;;;5073484;28;20041;-76
2022/06/15 07:34:28;;;;;;;7.10;4.57;;;;;;;;;;5072560;28;20044;-75
2022/06/15 07:36:54;;;;;;;5.78;4.20;;;;;;;;;;5071877;28;20480;-76
2022/06/15 07:39:22;;;;;;;5.80;3.40;;;;;;;;;;5071948;28;20067;-75
2022/06/15 07:41:48;;;;;;;4.28;3.15;;;;;;;;;;5063125;28;20048;-75
2022/06/15 07:44:15;;;;;;;7.60;4.07;;;;;;;;;;5071778;28;20056;-75
2022/06/15 07:46:41;;;;;;;5.35;4.18;;;;;;;;;;5073984;28;20504;-75
2022/06/15 07:51:56;;;;;;;5.20;3.63;;;;;;;;;;5029054;28;20051;-75
2022/06/15 07:54:22;;;;;;;4.15;3.47;;;;;;;;;;5072469;28;20438;-76
2022/06/15 07:56:52;;;;;;;5.20;3.70;;;;;;;;;;5074942;28;20048;-76
2022/06/15 07:59:18;;;;;;;6.60;3.90;;;;;;;;;;5068289;28;20048;-76
2022/06/15 08:01:45;;;;;;;5.45;3.28;;;;;;;;;;5065946;28;20123;-76
2022/06/15 08:04:11;;;;;;;5.03;3.15;;;;;;;;;;5071306;28;20064;-75
2022/06/15 08:06:40;;;;;;;6.55;3.72;;;;;;;;;;5066645;28;20053;-76
2022/06/15 08:09:09;;;;;;;7.25;4.05;;;;;;;;;;5064818;28;20051;-75
2022/06/15 08:11:36;;;;;;;5.60;3.85;;;;;;;;;;5071122;28;20136;-76
2022/06/15 08:14:02;;;;;;;5.65;3.45;;;;;;;;;;5067116;28;20052;-76
2022/06/15 08:16:28;;;;;;;5.53;3.25;;;;;;;;;;5053232;28;20068;-76
2022/06/15 08:18:57;;;;;;;5.50;3.75;;;;;;;;;;5063397;28;20059;-76
2022/06/15 08:21:25;;;;;;;5.68;3.22;;;;;;;;;;5069847;28;20048;-76
2022/06/15 08:23:53;;;;;;;4.22;3.38;;;;;;;;;;5066803;28;20138;-76
2022/06/15 08:26:21;;;;;;;6.18;3.55;;;;;;;;;;5061071;28;20440;-76
2022/06/15 08:28:48;;;;;;;5.13;3.50;;;;;;;;;;5070590;28;20048;-76
2022/06/15 08:31:15;;;;;;;6.53;3.78;;;;;;;;;;5062852;28;20063;-76
2022/06/15 08:33:41;;;;;;;4.47;3.10;;;;;;;;;;5068377;28;20509;-76
2022/06/15 08:36:11;;;;;;;6.53;3.70;;;;;;;;;;5070621;28;20044;-75
2022/06/15 08:38:40;;;;;;;5.57;3.60;;;;;;;;;;5060217;28;20044;-76
2022/06/15 08:41:11;;;;;;;5.43;3.70;;;;;;;;;;5069100;28;20049;-76
2022/06/15 08:43:57;;;;;;;6.18;3.60;;;;;;;;;;5070335;28;20506;-76
2022/06/15 08:46:23;;;;;;;6.05;3.92;;;;;;;;;;5071295;28;20056;-76
2022/06/15 08:49:13;;;;;;;5.82;3.85;;;;;;;;;;5057546;28;20040;-76
2022/06/15 08:51:44;;;;;;;8.50;4.10;;;;;;;;;;5072360;28;20048;-76
2022/06/15 08:54:17;;;;;;;7.28;4.07;;;;;;;;;;5066288;28;20047;-76
2022/06/15 08:56:47;;;;;;;7.35;4.10;;;;;;;;;;5066937;28;20075;-76
2022/06/15 08:59:16;;;;;;;7.80;4.35;;;;;;;;;;5065029;28;20050;-75
2022/06/15 09:01:48;;;;;;;7.85;3.90;;;;;;;;;;5070174;28;20044;-76
2022/06/15 09:04:33;;;;;;;11.23;4.43;;;;;;;;;;5063378;28;20127;-76
2022/06/15 09:07:04;;;;;;;8.18;4.65;;;;;;;;;;5067114;28;20079;-76
2022/06/15 09:09:39;;;;;;;6.82;3.95;;;;;;;;;;5066301;28;20080;-76
2022/06/15 09:14:59;;;;;;;;;;;;;;;;;;5062528;28;20057;-76
2022/06/15 09:17:26;;;;;;;6.75;4.22;;;;;;;;;;5061779;28;19943;-75
2022/06/15 09:19:59;;;;;;;6.03;3.95;;;;;;;;;;5070031;28;20048;-76
2022/06/15 09:22:27;;;;;;;7.43;3.88;;;;;;;;;;5067739;28;20499;-76
2022/06/15 09:24:56;;;;;;;4.72;3.40;;;;;;;;;;5067772;28;20052;-75
2022/06/15 09:27:24;;;;;;;7.18;3.80;;;;;;;;;;5071732;28;20084;-76
2022/06/15 09:30:03;;;;;;;4.65;3.78;;;;;;;;;;5064853;28;20056;-75
2022/06/15 09:32:35;;;;;;;3.88;3.47;;;;;;;;;;5056742;28;20144;-76
2022/06/15 09:35:16;;;;;;;7.03;3.65;;;;;;;;;;5060681;28;20123;-75
2022/06/15 09:37:42;;;;;;;6.57;4.40;;;;;;;;;;5062440;28;20052;-76
2022/06/15 09:40:10;;;;;;;6.80;4.25;;;;;;;;;;5067672;28;20110;-75
2022/06/15 09:42:36;;;;;;;5.55;3.63;;;;;;;;;;5059424;28;20044;-76
2022/06/15 09:45:02;;;;;;;4.72;3.55;;;;;;;;;;5058393;28;20045;-76
2022/06/15 09:47:28;;;;;;;4.20;3.50;;;;;;;;;;5068287;28;20144;-76
2022/06/15 09:50:07;;;;;;;5.95;3.33;;;;;;;;;;5070198;28;20051;-76
2022/06/15 09:52:40;;;;;;;5.53;3.85;;;;;;;;;;5066025;28;20541;-76
2022/06/15 09:55:07;;;;;;;;;;;;;;;;;;5071902;28;20045;-76
2022/06/15 09:57:34;;;;;;;6.50;4.57;;;;;;;;;;5068967;28;19964;-76
2022/06/15 10:00:02;;;;;;;5.57;4.43;;;;;;;;;;5066243;28;20037;-76
2022/06/15 10:02:30;;;;;;;5.90;3.80;;;;;;;;;;5071405;28;20051;-76
2022/06/15 10:04:57;;;;;;;6.15;3.88;;;;;;;;;;5070155;28;20422;-76
2022/06/15 10:07:32;;;;;;;4.60;3.90;;;;;;;;;;5067982;28;20074;-76
2022/06/15 10:10:02;;;;;;;4.40;3.47;;;;;;;;;;5068848;28;20396;-76
2022/06/15 10:15:18;;;;;;;5.70;3.90;;;;;;;;;;5067524;28;20352;-76
2022/06/15 10:17:50;;;;;;;5.50;4.00;;;;;;;;;;5060689;28;20057;-76
2022/06/15 10:20:21;;;;;;;5.50;3.78;;;;;;;;;;5069746;28;20076;-76
2022/06/15 10:22:52;;;;;;;4.45;3.70;;;;;;;;;;5063470;28;20044;-76
2022/06/15 10:25:18;;;;;;;3.97;3.20;;;;;;;;;;5064967;28;20368;-76
2022/06/15 10:27:44;;;;;;;4.63;3.47;;;;;;;;;;5065286;28;20064;-76
2022/06/15 10:30:13;;;;;;;5.82;3.50;;;;;;;;;;5068437;28;20419;-76
2022/06/15 10:32:57;;;;;;;5.25;3.50;;;;;;;;;;5064153;28;20049;-76
2022/06/15 10:35:24;;;;;;;4.95;3.03;;;;;;;;;;5068567;28;20041;-76
2022/06/15 10:37:53;;;;;;;6.22;3.00;;;;;;;;;;5061941;28;20055;-76
2022/06/15 10:40:22;;;;;;;6.60;3.47;;;;;;;;;;5057092;28;20037;-76
2022/06/15 10:42:51;;;;;;;4.78;3.67;;;;;;;;;;5059842;28;20057;-76
2022/06/15 10:45:23;;;;;;;4.90;3.42;;;;;;;;;;5067976;28;20499;-76
2022/06/15 10:47:54;;;;;;;5.15;3.42;;;;;;;;;;5067014;28;20040;-77
2022/06/15 10:50:21;;;;;;;5.35;3.05;;;;;;;;;;5063537;28;20056;-76
2022/06/15 10:52:51;;;;;;;5.07;3.10;;;;;;;;;;5067713;28;20098;-76
2022/06/15 11:02:06;;;;;;;5.63;2.90;;;;;;;;;;5060310;28;20099;-76
2022/06/15 11:04:03;;;;;;;4.05;2.90;;;;;;;;;;5050141;28;20097;-76
2022/06/15 11:06:36;;;;;;;4.40;2.83;;;;;;;;;;5056190;28;20044;-76
2022/06/15 11:09:03;;;;;;;3.42;3.13;;;;;;;;;;5069350;28;20045;-76
2022/06/15 11:11:29;;;;;;;4.93;3.00;;;;;;;;;;5058136;28;20345;-76
2022/06/15 11:13:57;;;;;;;5.15;3.03;;;;;;;;;;5052647;28;20111;-77
2022/06/15 11:19:23;;;;;;;5.43;2.92;;;;;;;;;;5085260;28;20055;-77
2022/06/15 11:22:13;;;;;;;5.15;3.17;;;;;;;;;;5073136;28;20056;-76
2022/06/15 11:24:58;;;;;;;6.20;3.15;;;;;;;;;;5061644;28;20080;-77
2022/06/15 11:27:33;;;;;;;4.60;3.03;;;;;;;;;;5057228;28;20051;-77
2022/06/15 11:30:02;;;;;;;6.57;3.53;;;;;;;;;;5068129;28;20214;-77
2022/06/15 11:32:31;;;;;;;3.63;3.10;;;;;;;;;;5065765;28;20088;-77
2022/06/15 11:35:01;;;;;;;4.18;3.25;;;;;;;;;;5068347;28;20052;-77
2022/06/15 11:37:31;;;;;;;5.18;3.00;;;;;;;;;;5059187;28;20498;-77
2022/06/15 11:40:05;;;;;;;7.68;3.17;;;;;;;;;;5068652;28;20403;-77
2022/06/15 11:42:31;;;;;;;6.05;3.00;;;;;;;;;;5060040;28;20048;-77
2022/06/15 11:44:57;;;;;;;7.20;3.05;;;;;;;;;;5065647;28;20044;-77
2022/06/15 11:47:37;;;;;;;6.57;3.15;;;;;;;;;;5049752;28;20048;-77
2022/06/15 11:50:27;;;;;;;5.00;2.65;;;;;;;;;;5067270;28;20404;-77
2022/06/15 11:53:02;;;;;;;3.05;2.85;;;;;;;;;;5052075;28;20058;-77
2022/06/15 11:55:35;;;;;;;6.47;2.75;;;;;;;;;;5068404;28;20071;-78
2022/06/15 11:58:24;;;;;;;3.83;2.90;;;;;;;;;;5057209;28;20049;-77
2022/06/15 12:00:51;;;;;;;5.65;2.60;;;;;;;;;;5059252;28;20048;-77
2022/06/15 12:03:17;;;;;;;4.47;2.97;;;;;;;;;;5071762;28;20036;-77
2022/06/15 12:05:47;;;;;;;3.83;2.85;;;;;;;;;;5067934;28;20041;-77
2022/06/15 12:08:28;;;;;;;5.32;2.70;;;;;;;;;;5071626;28;20036;-78
2022/06/15 12:10:54;;;;;;;3.08;2.50;;;;;;;;;;5066998;28;20049;-77
2022/06/15 12:13:26;;;;;;;3.88;2.70;;;;;;;;;;5055914;28;20098;-77
2022/06/15 12:16:01;;;;;;;2.47;2.25;;;;;;;;;;5061815;28;20507;-77
2022/06/15 12:18:44;;;;;;;4.68;2.70;;;;;;;;;;5071445;28;20127;-77
2022/06/15 12:21:10;;;;;;;3.30;2.72;;;;;;;;;;5070539;28;20050;-77
2022/06/15 12:23:56;;;;;;;6.15;2.70;;;;;;;;;;5068784;28;20119;-78
2022/06/15 12:26:22;;;;;;;5.50;2.78;;;;;;;;;;5071157;28;20048;-78
2022/06/15 12:28:57;;;;;;;5.82;2.50;;;;;;;;;;5056752;28;20048;-77
2022/06/15 12:31:44;;;;;;;5.40;2.50;;;;;;;;;;5070923;28;20051;-78
2022/06/15 12:34:28;;;;;;;3.70;2.20;;;;;;;;;;5066223;28;20075;-77
2022/06/15 12:37:05;;;;;;;4.97;2.47;;;;;;;;;;5062550;28;20048;-77
2022/06/15 12:39:49;;;;;;;4.32;2.30;;;;;;;;;;5070152;28;20041;-78
2022/06/15 12:42:17;;;;;;;4.88;2.45;;;;;;;;;;5060481;28;20045;-78
2022/06/15 12:44:51;;;;;;;3.00;2.35;;;;;;;;;;5062489;28;20373;-77
2022/06/15 12:47:18;;;;;;;3.10;2.70;;;;;;;;;;5066640;28;20496;-77
2022/06/15 12:49:56;;;;;;;4.55;2.55;;;;;;;;;;5060685;28;20515;-77
2022/06/15 12:52:29;;;;;;;4.80;2.30;;;;;;;;;;5066501;28;20097;-77
2022/06/15 12:55:03;;;;;;;2.75;2.33;;;;;;;;;;5069679;28;20396;-76
2022/06/15 12:57:38;;;;;;;4.80;2.42;;;;;;;;;;5069469;28;20045;-77
2022/06/15 13:00:26;;;;;;;3.28;2.53;;;;;;;;;;5058236;28;20048;-77
2022/06/15 13:02:58;;;;;;;3.70;2.40;;;;;;;;;;5061693;28;20431;-77
2022/06/15 13:05:34;;;;;;;3.42;2.20;;;;;;;;;;5071667;28;20381;-78
2022/06/15 13:08:04;;;;;;;3.15;2.35;;;;;;;;;;5070801;28;20131;-78
2022/06/15 13:10:32;;;;;;;3.45;2.20;;;;;;;;;;5071063;28;20045;-77
2022/06/15 13:13:00;;;;;;;2.55;1.95;;;;;;;;;;5066550;28;20294;-77
2022/06/15 13:15:26;;;;;;;2.92;2.22;;;;;;;;;;5071904;28;20091;-78
2022/06/15 13:20:53;;;;;;;2.92;2.17;;;;;;;;;;5052193;28;20048;-77
2022/06/15 13:23:38;;;;;;;3.00;2.03;;;;;;;;;;5067544;28;20084;-77
2022/06/15 13:26:05;;;;;;;4.05;2.20;;;;;;;;;;5072772;28;20052;-78
2022/06/15 13:28:33;;;;;;;4.38;2.40;;;;;;;;;;5064219;28;20052;-77
2022/06/15 13:31:01;;;;;;;6.35;2.30;;;;;;;;;;5065813;28;20514;-77
2022/06/15 13:33:55;;;;;;;3.05;2.00;;;;;;;;;;5065750;28;20120;-77
2022/06/15 13:36:22;;;;;;;3.13;2.10;;;;;;;;;;5050625;28;20067;-77
2022/06/15 13:38:50;;;;;;;2.88;2.10;;;;;;;;;;5063988;28;20411;-77
2022/06/15 13:41:24;;;;;;;2.72;2.45;;;;;;;;;;5069167;28;20175;-77
2022/06/15 13:43:51;;;;;;;2.40;2.10;;;;;;;;;;5069980;28;20403;-77
2022/06/15 13:46:26;;;;;;;2.78;1.98;;;;;;;;;;5051696;28;20265;-78
2022/06/15 13:48:56;;;;;;;4.22;2.30;;;;;;;;;;5070150;28;20044;-78
2022/06/15 13:51:29;;;;;;;2.28;2.10;;;;;;;;;;5057572;28;20177;-78
2022/06/15 13:54:04;;;;;;;2.90;1.90;;;;;;;;;;5069663;28;20052;-77
2022/06/15 13:56:38;;;;;;;2.50;2.22;;;;;;;;;;5070310;28;20502;-77
2022/06/15 13:59:04;;;;;;;3.42;1.90;;;;;;;;;;5068557;28;20051;-77
2022/06/15 14:01:49;;;;;;;3.33;2.20;;;;;;;;;;5048455;28;20045;-77
2022/06/15 14:04:51;;;;;;;3.60;2.20;;;;;;;;;;5068263;28;20105;-78
2022/06/15 14:07:37;;;;;;;3.67;2.30;;;;;;;;;;5011089;28;20087;-77
2022/06/15 14:10:08;;;;;;;2.28;1.80;;;;;;;;;;5065883;28;20093;-77
2022/06/15 14:12:49;;;;;;;2.42;2.20;;;;;;;;;;5070410;28;20048;-77
2022/06/15 14:15:18;;;;;;;2.58;2.03;;;;;;;;;;5051523;28;20097;-77
2022/06/15 14:18:02;;;;;;;2.08;1.90;;;;;;;;;;5061384;28;20091;-78
2022/06/15 14:20:36;;;;;;;2.85;1.98;;;;;;;;;;5055133;28;20056;-77
2022/06/15 14:23:03;;;;;;;2.40;1.92;;;;;;;;;;5066246;28;20543;-78
2022/06/15 14:25:36;;;;;;;2.63;2.00;;;;;;;;;;5050295;28;20057;-78
2022/06/15 14:28:06;;;;;;;3.88;2.15;;;;;;;;;;5068812;28;20046;-77
2022/06/15 14:30:35;;;;;;;2.65;2.00;;;;;;;;;;5066029;28;20045;-78
2022/06/15 14:33:03;;;;;;;2.25;2.05;;;;;;;;;;5063084;28;20396;-77
2022/06/15 14:35:29;;;;;;;4.07;2.10;;;;;;;;;;5062441;28;20072;-77
2022/06/15 14:38:00;;;;;;;2.63;2.20;;;;;;;;;;5063281;28;20403;-77
2022/06/15 14:40:38;;;;;;;2.83;1.90;;;;;;;;;;5073052;28;20048;-78
2022/06/15 14:43:05;;;;;;;4.30;2.25;;;;;;;;;;5059140;28;20071;-78
2022/06/15 14:45:33;;;;;;;133.85;76.72;;;;;;;;;;5060801;28;20045;-77
2022/06/15 14:48:05;;;;;;;1145.50;264.42;;;;;;;;;;5064063;28;20141;-78